Time;durP1;ratioP1;P1;durP2;ratioP2;P2;SDS_P1;SDS_P2;PMS_P1;PMS_P2;Temp;Humidity;BMP_temperature;BMP_pressure;BME280_temperature;BME280_humidity;BME280_pressure;Samples;Min_cycle;Max_cycle;Signal;HPM_P1;HPM_P2
2021/03/31 00:00:45;;;;;;;53.47;28.42;;;6.60;99.90;;;;;;4162210;28;20041;-76
2021/03/31 00:02:48;;;;;;;43.03;25.30;;;6.70;99.90;;;;;;4161791;28;20396;-75
2021/03/31 00:04:48;;;;;;;47.67;27.98;;;6.60;99.90;;;;;;4162054;28;20041;-75
2021/03/31 00:06:49;;;;;;;46.90;26.55;;;6.50;99.90;;;;;;4144435;28;20419;-75
2021/03/31 00:08:49;;;;;;;44.35;26.58;;;6.50;99.90;;;;;;4162910;28;20099;-77
2021/03/31 00:10:52;;;;;;;47.72;27.13;;;6.50;99.90;;;;;;4146853;28;20464;-75
2021/03/31 00:12:53;;;;;;;45.30;27.65;;;6.50;99.90;;;;;;4164989;28;20033;-75
2021/03/31 00:14:54;;;;;;;49.65;26.92;;;6.50;99.90;;;;;;4164688;28;20366;-77
2021/03/31 00:16:54;;;;;;;44.92;24.25;;;6.40;99.90;;;;;;4146953;28;20034;-75
2021/03/31 00:18:55;;;;;;;49.10;26.60;;;6.30;99.90;;;;;;4164509;28;20042;-75
2021/03/31 00:20:56;;;;;;;41.33;24.83;;;6.30;99.90;;;;;;4164587;28;20575;-75
2021/03/31 00:22:56;;;;;;;47.08;27.60;;;6.20;99.90;;;;;;4147398;28;20084;-77
2021/03/31 00:24:57;;;;;;;51.20;28.17;;;6.20;99.90;;;;;;4164916;28;20096;-77
2021/03/31 00:26:58;;;;;;;50.38;25.33;;;6.10;99.90;;;;;;4165041;28;20029;-75
2021/03/31 00:28:59;;;;;;;42.35;24.60;;;6.10;99.90;;;;;;4164758;28;20037;-76
2021/03/31 00:30:59;;;;;;;43.55;25.75;;;6.10;99.90;;;;;;4146101;28;20488;-76
2021/03/31 00:33:01;;;;;;;40.75;25.17;;;5.90;99.90;;;;;;4146340;28;20041;-76
2021/03/31 00:35:01;;;;;;;43.90;25.98;;;6.10;99.90;;;;;;4163528;28;20083;-77
2021/03/31 00:37:03;;;;;;;44.45;25.63;;;6.10;99.90;;;;;;4146601;28;20030;-77
2021/03/31 00:39:06;;;;;;;52.90;28.15;;;6.20;99.90;;;;;;4164006;28;20030;-75
2021/03/31 00:41:06;;;;;;;48.35;26.45;;;6.20;99.90;;;;;;4163005;28;20038;-76
2021/03/31 00:43:08;;;;;;;47.75;28.10;;;6.10;99.90;;;;;;4145324;28;20114;-76
2021/03/31 00:45:10;;;;;;;54.88;29.58;;;6.10;99.90;;;;;;4144451;28;20038;-75
2021/03/31 00:47:11;;;;;;;52.20;28.70;;;6.00;99.90;;;;;;4145066;28;20513;-75
2021/03/31 00:49:12;;;;;;;47.53;26.85;;;6.00;99.90;;;;;;4162245;28;20119;-75
2021/03/31 00:51:12;;;;;;;53.20;26.50;;;5.90;99.90;;;;;;4145328;28;20108;-77
2021/03/31 00:53:18;;;;;;;47.80;27.30;;;;;;;;;;4162059;28;20034;-77
2021/03/31 00:55:29;;;;;;;53.03;26.77;;;;;;;;;;4162771;28;20056;-74
2021/03/31 00:57:31;;;;;;;55.92;25.73;;;5.70;99.90;;;;;;4162577;28;20040;-75
2021/03/31 00:59:32;;;;;;;48.17;25.98;;;5.90;99.90;;;;;;4146364;28;20030;-75
2021/03/31 01:01:33;;;;;;;46.33;26.92;;;6.00;99.90;;;;;;4160418;28;20060;-75
2021/03/31 01:03:35;;;;;;;44.47;25.17;;;;;;;;;;4146204;28;20034;-75
2021/03/31 01:05:35;;;;;;;48.30;26.35;;;5.90;99.90;;;;;;4164469;28;20045;-75
2021/03/31 01:07:37;;;;;;;43.97;27.17;;;5.90;99.90;;;;;;4144966;28;20444;-75
2021/03/31 01:09:39;;;;;;;45.88;27.42;;;;;;;;;;4133234;28;20084;-77
2021/03/31 01:12:08;;;;;;;53.75;27.80;;;;;;;;;;4161719;28;20064;-75
2021/03/31 01:14:22;;;;;;;45.53;25.75;;;;;;;;;;4153431;28;20057;-75
2021/03/31 01:16:30;;;;;;;52.83;25.90;;;;;;;;;;4162452;28;20702;-75
2021/03/31 01:18:45;;;;;;;43.65;25.52;;;;;;;;;;4144434;28;20136;-75
2021/03/31 01:20:55;;;;;;;42.45;26.75;;;;;;;;;;4161483;28;20033;-75
2021/03/31 01:23:15;;;;;;;41.67;26.25;;;;;;;;;;4148930;28;20556;-75
2021/03/31 01:25:42;;;;;;;42.75;24.40;;;5.50;99.90;;;;;;4143630;28;20454;-75
2021/03/31 01:28:02;;;;;;;44.40;23.60;;;5.60;99.90;;;;;;4145155;28;20034;-76
2021/03/31 01:30:26;;;;;;;54.88;26.52;;;5.50;99.90;;;;;;4144069;28;20033;-76
2021/03/31 01:33:02;;;;;;;49.92;25.55;;;5.40;99.90;;;;;;4148586;28;20064;-75
2021/03/31 01:35:08;;;;;;;53.75;27.45;;;5.40;99.90;;;;;;4078032;29;20036;-75
2021/03/31 01:37:27;;;;;;;43.42;24.08;;;5.30;99.90;;;;;;4113070;28;20034;-75
2021/03/31 01:39:30;;;;;;;44.15;23.17;;;5.30;99.90;;;;;;4152231;28;20022;-76
2021/03/31 01:41:33;;;;;;;46.65;26.23;;;5.30;99.90;;;;;;4160864;28;20068;-75
2021/03/31 01:43:34;;;;;;;47.83;26.15;;;5.30;99.90;;;;;;4130104;28;20595;-75
2021/03/31 01:45:37;;;;;;;42.53;23.92;;;5.30;99.90;;;;;;4156179;28;20492;-75
2021/03/31 01:47:42;;;;;;;52.47;25.25;;;5.20;99.90;;;;;;4129733;28;20409;-75
2021/03/31 01:49:44;;;;;;;44.92;24.25;;;5.20;99.90;;;;;;4140648;28;20096;-75
2021/03/31 01:51:46;;;;;;;53.05;26.73;;;5.20;99.90;;;;;;4145309;28;20034;-75
2021/03/31 01:53:48;;;;;;;49.75;26.20;;;5.20;99.90;;;;;;4135217;28;20062;-76
2021/03/31 01:55:51;;;;;;;54.47;26.45;;;5.30;99.90;;;;;;4135301;28;20409;-77
2021/03/31 01:57:53;;;;;;;53.70;28.92;;;4.90;99.90;;;;;;4162803;28;20034;-77
2021/03/31 01:59:55;;;;;;;54.58;28.33;;;5.40;99.90;;;;;;4134350;28;20081;-77
2021/03/31 02:01:58;;;;;;;49.67;27.95;;;5.50;99.90;;;;;;4147057;28;20034;-75
2021/03/31 02:03:59;;;;;;;53.60;28.83;;;5.50;99.90;;;;;;4146837;28;20037;-77
2021/03/31 02:06:00;;;;;;;53.45;27.63;;;5.50;99.90;;;;;;4151801;28;20087;-75
2021/03/31 02:08:03;;;;;;;49.95;27.25;;;5.40;99.90;;;;;;4145657;28;20555;-77
2021/03/31 02:10:04;;;;;;;47.60;25.20;;;5.30;99.90;;;;;;4151296;28;20469;-75
2021/03/31 02:12:07;;;;;;;51.35;27.98;;;5.20;99.90;;;;;;4146062;28;20440;-76
2021/03/31 02:14:10;;;;;;;48.47;26.98;;;5.10;99.90;;;;;;4146208;28;20052;-75
2021/03/31 02:16:12;;;;;;;47.88;26.20;;;5.00;99.90;;;;;;4129219;28;20073;-76
2021/03/31 02:18:16;;;;;;;56.53;27.35;;;5.00;99.90;;;;;;4146671;28;20572;-76
2021/03/31 02:20:20;;;;;;;47.45;26.77;;;5.00;99.90;;;;;;4139160;28;20037;-75
2021/03/31 02:22:23;;;;;;;54.78;26.52;;;5.00;99.90;;;;;;4149567;28;20424;-75
2021/03/31 02:24:23;;;;;;;55.08;27.02;;;4.90;99.90;;;;;;4128868;28;20038;-76
2021/03/31 02:26:26;;;;;;;49.20;27.27;;;4.90;99.90;;;;;;4129126;28;20097;-75
2021/03/31 02:28:27;;;;;;;53.63;26.05;;;4.90;99.90;;;;;;4146603;28;20030;-76
2021/03/31 02:30:29;;;;;;;53.03;26.92;;;4.90;99.90;;;;;;4128679;28;20500;-76
2021/03/31 02:32:30;;;;;;;52.30;25.67;;;4.80;99.90;;;;;;4142201;28;20033;-76
2021/03/31 02:34:33;;;;;;;50.65;26.60;;;4.80;99.90;;;;;;4148938;28;20044;-75
2021/03/31 02:36:36;;;;;;;53.13;27.20;;;4.70;99.90;;;;;;4145237;28;20430;-75
2021/03/31 02:38:37;;;;;;;45.47;25.77;;;4.70;99.90;;;;;;4144480;28;20032;-76
2021/03/31 02:40:40;;;;;;;50.13;25.40;;;4.70;99.90;;;;;;4161405;28;20459;-76
2021/03/31 02:42:41;;;;;;;52.10;25.90;;;4.60;99.90;;;;;;4145202;28;20034;-76
2021/03/31 02:44:49;;;;;;;51.53;27.17;;;4.70;99.90;;;;;;4130105;28;20077;-76
2021/03/31 02:46:53;;;;;;;58.97;29.58;;;4.70;99.90;;;;;;4137306;28;20034;-76
2021/03/31 02:48:55;;;;;;;49.33;25.52;;;4.60;99.90;;;;;;4144868;28;20091;-75
2021/03/31 02:50:59;;;;;;;49.40;26.33;;;4.70;99.90;;;;;;4144892;28;20038;-75
2021/03/31 02:53:00;;;;;;;43.20;25.42;;;4.60;99.90;;;;;;4140763;28;20030;-75
2021/03/31 02:55:02;;;;;;;54.58;26.73;;;4.70;99.90;;;;;;4144103;28;20034;-75
2021/03/31 02:57:03;;;;;;;56.13;26.58;;;4.60;99.90;;;;;;4160907;28;20190;-76
2021/03/31 02:59:05;;;;;;;48.65;25.65;;;4.60;99.90;;;;;;4144724;28;20065;-75
2021/03/31 03:01:07;;;;;;;54.58;28.10;;;4.60;99.90;;;;;;4145115;28;20030;-75
2021/03/31 03:03:08;;;;;;;54.80;27.60;;;4.60;99.90;;;;;;4144831;28;20022;-76
2021/03/31 03:05:11;;;;;;;48.63;25.35;;;4.70;99.90;;;;;;4162260;28;20022;-75
2021/03/31 03:07:12;;;;;;;48.67;24.98;;;;;;;;;;4144740;28;20516;-75
2021/03/31 03:09:15;;;;;;;50.53;27.52;;;4.50;99.90;;;;;;4162033;28;20083;-76
2021/03/31 03:11:16;;;;;;;49.65;27.60;;;4.50;99.90;;;;;;4144388;28;20073;-75
2021/03/31 03:13:21;;;;;;;52.83;26.80;;;4.50;99.90;;;;;;4144693;28;20042;-75
2021/03/31 03:15:24;;;;;;;47.95;25.25;;;4.40;99.90;;;;;;4144404;28;20038;-75
2021/03/31 03:17:25;;;;;;;56.00;26.88;;;4.40;99.90;;;;;;4144842;28;20034;-75
2021/03/31 03:19:25;;;;;;;51.33;27.13;;;4.40;99.90;;;;;;4161547;28;20072;-76
2021/03/31 03:21:28;;;;;;;51.92;25.65;;;4.40;99.90;;;;;;4144772;28;20556;-75
2021/03/31 03:23:30;;;;;;;51.15;25.75;;;4.40;99.90;;;;;;4144347;28;20045;-75
2021/03/31 03:25:32;;;;;;;55.92;27.63;;;4.30;99.90;;;;;;4144563;28;20042;-75
2021/03/31 03:27:35;;;;;;;56.45;27.98;;;4.30;99.90;;;;;;4161925;28;20105;-75
2021/03/31 03:29:36;;;;;;;64.07;29.90;;;4.40;99.90;;;;;;4144431;28;20048;-75
2021/03/31 03:31:38;;;;;;;56.40;27.75;;;4.40;99.90;;;;;;4162535;28;20112;-75
2021/03/31 03:33:39;;;;;;;63.17;28.77;;;4.40;99.90;;;;;;4144755;28;20034;-75
2021/03/31 03:35:40;;;;;;;54.15;28.50;;;4.40;99.90;;;;;;4162017;28;20053;-76
2021/03/31 03:37:46;;;;;;;63.05;28.55;;;4.40;99.90;;;;;;4162384;28;20037;-75
2021/03/31 03:39:46;;;;;;;58.35;28.77;;;4.40;99.90;;;;;;4130923;28;20082;-76
2021/03/31 03:41:48;;;;;;;54.35;28.20;;;;;;;;;;4139541;28;20449;-75
2021/03/31 03:43:54;;;;;;;57.92;30.48;;;4.40;99.90;;;;;;4129294;28;20377;-75
2021/03/31 03:45:57;;;;;;;54.67;27.67;;;4.40;99.90;;;;;;4148851;28;20060;-75
2021/03/31 03:47:59;;;;;;;66.10;29.60;;;4.30;99.90;;;;;;4131456;28;20050;-75
2021/03/31 03:50:01;;;;;;;66.68;27.25;;;4.20;99.90;;;;;;4131020;28;20027;-76
2021/03/31 03:52:03;;;;;;;66.55;28.95;;;4.20;99.90;;;;;;4136319;28;20030;-76
2021/03/31 03:54:10;;;;;;;60.35;28.10;;;4.20;99.90;;;;;;4157168;28;20515;-76
2021/03/31 03:56:12;;;;;;;69.13;33.15;;;4.20;99.90;;;;;;4149222;28;20025;-76
2021/03/31 03:58:13;;;;;;;71.07;31.80;;;4.30;99.90;;;;;;4148951;28;20026;-75
2021/03/31 04:00:15;;;;;;;68.70;30.83;;;;;;;;;;4133982;28;20410;-75
2021/03/31 04:02:16;;;;;;;73.57;32.58;;;4.30;99.90;;;;;;4147709;28;20026;-75
2021/03/31 04:04:20;;;;;;;58.88;28.95;;;4.30;99.90;;;;;;4157012;28;20104;-75
2021/03/31 04:06:20;;;;;;;69.07;32.25;;;4.30;99.90;;;;;;4131237;28;20030;-75
2021/03/31 04:08:21;;;;;;;68.00;31.42;;;4.30;99.90;;;;;;4131291;28;20389;-75
2021/03/31 04:10:27;;;;;;;76.05;34.28;;;4.30;99.90;;;;;;4133145;28;20541;-75
2021/03/31 04:12:28;;;;;;;75.47;32.80;;;4.30;99.90;;;;;;4164764;28;20384;-75
2021/03/31 04:14:30;;;;;;;68.97;31.23;;;4.30;99.90;;;;;;4143693;28;20459;-75
2021/03/31 04:16:32;;;;;;;71.05;31.85;;;4.40;99.90;;;;;;4164311;28;20633;-75
2021/03/31 04:18:34;;;;;;;59.22;29.00;;;4.30;99.90;;;;;;4162472;28;20369;-76
2021/03/31 04:20:36;;;;;;;66.45;31.00;;;4.30;99.90;;;;;;4163365;28;20103;-76
2021/03/31 04:22:37;;;;;;;70.28;34.15;;;4.20;99.90;;;;;;4164460;28;20116;-75
2021/03/31 04:24:38;;;;;;;73.82;33.47;;;4.20;99.90;;;;;;4163705;28;20036;-76
2021/03/31 04:26:40;;;;;;;73.72;33.33;;;4.20;99.90;;;;;;4163559;28;20388;-76
2021/03/31 04:28:41;;;;;;;70.78;32.40;;;4.10;99.90;;;;;;4146601;28;20584;-76
2021/03/31 04:30:41;;;;;;;74.25;33.10;;;4.10;99.90;;;;;;4164060;28;20038;-76
2021/03/31 04:32:44;;;;;;;66.72;33.20;;;4.10;99.90;;;;;;4164300;28;20029;-76
2021/03/31 04:34:45;;;;;;;75.38;33.28;;;4.10;99.90;;;;;;4163932;28;20100;-76
2021/03/31 04:36:47;;;;;;;68.78;32.30;;;4.00;99.90;;;;;;4162650;28;20113;-76
2021/03/31 04:38:50;;;;;;;65.38;30.42;;;4.00;99.90;;;;;;4163415;28;20032;-76
2021/03/31 04:40:59;;;;;;;75.88;33.22;;;4.00;99.90;;;;;;4164145;28;20081;-76
2021/03/31 04:43:00;;;;;;;71.88;32.03;;;4.00;99.90;;;;;;4146429;28;20460;-76
2021/03/31 04:45:00;;;;;;;61.63;30.83;;;3.90;99.90;;;;;;4146181;28;20030;-76
2021/03/31 04:47:02;;;;;;;65.57;29.77;;;3.90;99.90;;;;;;4162597;28;20021;-78
2021/03/31 04:49:03;;;;;;;69.03;30.77;;;3.80;99.90;;;;;;4163747;28;20448;-76
2021/03/31 04:51:05;;;;;;;76.90;34.35;;;3.80;99.90;;;;;;4146038;28;20148;-76
2021/03/31 04:53:05;;;;;;;62.08;29.38;;;3.80;99.90;;;;;;4146580;28;20018;-76
2021/03/31 04:55:07;;;;;;;65.32;31.45;;;3.80;99.90;;;;;;4144582;28;20033;-76
2021/03/31 04:57:08;;;;;;;70.18;31.10;;;3.70;99.90;;;;;;4146033;28;20085;-76
2021/03/31 04:59:08;;;;;;;70.80;30.60;;;3.70;99.90;;;;;;4163653;28;20052;-76
2021/03/31 05:01:09;;;;;;;64.47;29.98;;;3.70;99.90;;;;;;4146004;28;20022;-75
2021/03/31 05:03:10;;;;;;;67.93;32.83;;;3.70;99.90;;;;;;4146137;28;20037;-76
2021/03/31 05:05:12;;;;;;;75.85;32.95;;;3.70;99.90;;;;;;4132604;28;20042;-76
2021/03/31 05:07:12;;;;;;;63.72;30.17;;;3.70;99.90;;;;;;4136386;28;20413;-76
2021/03/31 05:09:13;;;;;;;78.75;34.42;;;3.70;99.90;;;;;;4141149;28;20030;-76
2021/03/31 05:11:14;;;;;;;75.10;32.10;;;3.80;99.90;;;;;;4163187;28;20041;-75
2021/03/31 05:13:16;;;;;;;73.22;32.35;;;3.70;99.90;;;;;;4160771;28;20496;-76
2021/03/31 05:15:17;;;;;;;67.85;32.97;;;3.70;99.90;;;;;;4162110;28;20025;-76
2021/03/31 05:17:18;;;;;;;71.25;35.42;;;3.80;99.90;;;;;;4162012;28;20045;-76
2021/03/31 05:19:18;;;;;;;72.32;32.97;;;3.90;99.90;;;;;;4161422;28;20044;-76
2021/03/31 05:21:19;;;;;;;72.90;32.78;;;4.00;99.90;;;;;;4144512;28;20030;-75
2021/03/31 05:23:20;;;;;;;73.18;33.67;;;4.00;99.90;;;;;;4144353;28;20135;-76
2021/03/31 05:25:21;;;;;;;70.22;32.67;;;4.00;99.90;;;;;;4161874;28;20044;-75
2021/03/31 05:27:22;;;;;;;79.13;34.42;;;4.00;99.90;;;;;;4144042;28;20042;-76
2021/03/31 05:29:23;;;;;;;68.88;32.35;;;4.00;99.90;;;;;;4162396;28;20036;-75
2021/03/31 05:31:24;;;;;;;71.88;33.47;;;4.00;99.90;;;;;;4162965;28;20034;-77
2021/03/31 05:33:25;;;;;;;67.32;34.03;;;4.00;99.90;;;;;;4163500;28;20022;-75
2021/03/31 05:35:25;;;;;;;70.00;34.97;;;4.00;99.90;;;;;;4162444;28;20110;-75
2021/03/31 05:37:27;;;;;;;74.05;33.75;;;4.00;99.90;;;;;;4144518;28;20030;-77
2021/03/31 05:39:27;;;;;;;74.63;36.58;;;4.00;99.90;;;;;;4144879;28;20033;-74
2021/03/31 05:41:28;;;;;;;71.00;34.65;;;4.10;99.90;;;;;;4163295;28;20033;-77
2021/03/31 05:43:29;;;;;;;66.70;32.33;;;4.10;99.90;;;;;;4163256;28;20132;-74
2021/03/31 05:45:32;;;;;;;67.38;33.85;;;4.20;99.90;;;;;;4163001;28;20115;-74
2021/03/31 05:47:36;;;;;;;;;;;4.30;99.90;;;;;;4146177;28;20030;-74
2021/03/31 05:49:38;;;;;;;68.30;35.50;;;4.40;99.90;;;;;;4162396;28;20248;-74
2021/03/31 05:51:39;;;;;;;75.03;34.35;;;4.40;99.90;;;;;;4145832;28;20491;-74
2021/03/31 05:53:39;;;;;;;69.20;36.05;;;4.50;99.90;;;;;;4145569;28;20041;-74
2021/03/31 05:55:40;;;;;;;73.47;36.80;;;4.50;99.90;;;;;;4145761;28;20477;-74
2021/03/31 05:57:42;;;;;;;83.47;39.05;;;4.60;99.90;;;;;;4162805;28;20025;-75
2021/03/31 05:59:42;;;;;;;67.22;38.05;;;4.80;99.90;;;;;;4145489;28;20022;-75
2021/03/31 06:01:44;;;;;;;70.88;36.72;;;4.90;99.90;;;;;;4162629;28;20412;-74
2021/03/31 06:03:46;;;;;;;81.60;39.90;;;5.00;99.90;;;;;;4145143;28;20080;-74
2021/03/31 06:05:47;;;;;;;66.25;36.78;;;5.10;99.90;;;;;;4149791;28;20029;-75
2021/03/31 06:07:50;;;;;;;70.30;35.72;;;5.20;99.90;;;;;;4152018;28;20030;-74
2021/03/31 06:10:20;;;;;;;73.25;37.50;;;5.30;99.90;;;;;;4163161;28;20064;-75
2021/03/31 06:12:30;;;;;;;67.40;35.03;;;5.50;99.90;;;;;;4133865;28;20038;-75
2021/03/31 06:14:38;;;;;;;68.25;36.70;;;5.60;99.90;;;;;;4128244;28;20026;-75
2021/03/31 06:16:45;;;;;;;65.75;32.92;;;5.70;99.90;;;;;;4157773;28;20069;-75
2021/03/31 06:18:45;;;;;;;53.97;35.53;;;5.80;99.90;;;;;;4161873;28;20034;-74
2021/03/31 06:20:54;;;;;;;66.35;35.13;;;6.00;99.90;;;;;;4147347;28;20034;-74
2021/03/31 06:23:07;;;;;;;64.35;31.60;;;6.10;99.90;;;;;;4145373;28;20037;-75
2021/03/31 06:25:17;;;;;;;63.60;34.90;;;6.30;99.90;;;;;;4144965;28;20060;-75
2021/03/31 06:27:30;;;;;;;59.00;31.98;;;6.40;99.90;;;;;;4145168;28;20126;-75
2021/03/31 06:29:43;;;;;;;53.72;31.58;;;6.50;99.90;;;;;;4162898;28;20026;-75
2021/03/31 06:31:46;;;;;;;54.45;31.88;;;6.60;99.90;;;;;;4138885;28;20105;-74
2021/03/31 06:33:49;;;;;;;51.45;30.30;;;6.70;99.90;;;;;;4162124;28;20032;-74
2021/03/31 06:35:51;;;;;;;43.22;29.13;;;6.70;99.90;;;;;;4158697;28;20112;-75
2021/03/31 06:38:08;;;;;;;49.28;29.80;;;6.80;99.90;;;;;;4152710;28;20591;-75
2021/03/31 06:40:33;;;;;;;50.50;29.55;;;7.00;99.90;;;;;;4153740;28;20092;-74
2021/03/31 06:42:41;;;;;;;51.75;28.98;;;7.10;99.90;;;;;;4154959;28;20029;-73
2021/03/31 06:48:52;;;;;;;53.38;30.63;;;7.40;99.90;;;;;;4153681;28;20080;-74
2021/03/31 06:50:53;;;;;;;58.55;31.85;;;7.50;99.90;;;;;;4142631;28;20030;-75
2021/03/31 06:53:01;;;;;;;50.58;29.45;;;7.70;99.90;;;;;;4140932;28;20035;-75
2021/03/31 06:55:04;;;;;;;43.78;26.73;;;7.90;99.90;;;;;;4143106;28;20045;-75
2021/03/31 06:57:04;;;;;;;48.35;30.73;;;8.00;99.90;;;;;;4162420;28;20036;-74
2021/03/31 06:59:06;;;;;;;46.13;28.73;;;8.10;99.90;;;;;;4152762;28;20372;-75
2021/03/31 07:01:23;;;;;;;44.08;28.75;;;8.10;99.90;;;;;;4130402;28;20030;-75
2021/03/31 07:03:24;;;;;;;51.25;28.88;;;8.20;99.90;;;;;;4143127;28;20042;-75
2021/03/31 07:05:29;;;;;;;47.72;29.20;;;8.20;99.90;;;;;;4160678;28;20026;-75
2021/03/31 07:07:43;;;;;;;47.08;29.38;;;8.30;99.90;;;;;;4145338;28;20517;-75
2021/03/31 07:09:44;;;;;;;;;;;8.40;99.90;;;;;;4161450;28;20037;-75
2021/03/31 07:11:45;;;;;;;47.33;30.05;;;8.50;99.90;;;;;;4160831;28;19909;-74
2021/03/31 07:13:47;;;;;;;44.65;29.33;;;8.60;99.90;;;;;;4160453;28;20033;-75
2021/03/31 07:15:49;;;;;;;53.03;31.48;;;8.70;99.90;;;;;;4159926;28;20477;-74
2021/03/31 07:17:55;;;;;;;45.58;30.42;;;8.80;99.90;;;;;;4144208;28;20037;-74
2021/03/31 07:19:57;;;;;;;47.88;28.13;;;8.90;99.90;;;;;;4163951;28;20025;-74
2021/03/31 07:21:58;;;;;;;42.90;29.02;;;9.00;99.90;;;;;;4163066;28;20124;-74
2021/03/31 07:23:59;;;;;;;47.08;30.95;;;9.00;99.90;;;;;;4142083;28;20030;-74
2021/03/31 07:26:00;;;;;;;42.42;30.20;;;9.10;99.90;;;;;;4147225;28;20433;-73
2021/03/31 07:28:01;;;;;;;51.97;31.00;;;9.20;99.90;;;;;;4164173;28;20024;-73
2021/03/31 07:30:12;;;;;;;50.25;32.13;;;9.30;99.90;;;;;;4146247;28;20037;-74
2021/03/31 07:32:13;;;;;;;48.83;31.42;;;9.40;99.90;;;;;;4144313;28;20022;-73
2021/03/31 07:34:26;;;;;;;46.15;30.52;;;9.60;99.90;;;;;;4163868;28;20435;-75
2021/03/31 07:36:28;;;;;;;50.35;30.88;;;9.80;99.90;;;;;;4161871;28;20091;-74
2021/03/31 07:38:29;;;;;;;45.05;29.05;;;9.90;99.90;;;;;;4161896;28;20049;-74
2021/03/31 07:40:32;;;;;;;51.50;32.58;;;10.00;99.90;;;;;;4146669;28;20139;-73
2021/03/31 07:42:34;;;;;;;52.22;31.27;;;10.10;99.90;;;;;;4162851;28;20516;-75
2021/03/31 07:44:35;;;;;;;49.72;30.85;;;10.30;99.90;;;;;;4140732;28;20478;-74
2021/03/31 07:46:39;;;;;;;51.05;32.60;;;10.30;99.90;;;;;;4145460;28;20040;-74
2021/03/31 07:48:40;;;;;;;;;;;10.40;99.90;;;;;;4146788;28;20515;-75
2021/03/31 07:50:41;;;;;;;48.15;31.27;;;10.60;99.90;;;;;;4145749;28;19917;-75
2021/03/31 07:52:50;;;;;;;45.80;30.67;;;10.70;99.90;;;;;;4143734;28;20382;-74
2021/03/31 07:54:55;;;;;;;43.67;30.45;;;10.90;99.90;;;;;;4144050;28;20053;-74
2021/03/31 07:56:58;;;;;;;43.17;31.20;;;11.00;99.90;;;;;;4139092;28;20489;-74
2021/03/31 07:59:02;;;;;;;47.92;33.25;;;11.10;99.90;;;;;;4145742;28;20144;-74
2021/03/31 08:01:09;;;;;;;53.83;33.17;;;11.30;99.90;;;;;;4163279;28;20044;-76
2021/03/31 08:03:15;;;;;;;45.72;31.33;;;11.40;99.90;;;;;;4163772;28;20049;-76
2021/03/31 08:05:16;;;;;;;45.92;31.77;;;11.40;99.90;;;;;;4162177;28;20025;-75
2021/03/31 08:07:21;;;;;;;52.70;32.08;;;11.50;99.90;;;;;;4163709;28;20567;-75
2021/03/31 08:09:29;;;;;;;47.65;33.75;;;11.60;99.90;;;;;;4145637;28;20054;-76
2021/03/31 08:11:39;;;;;;;45.38;33.75;;;11.70;99.90;;;;;;4162513;28;20088;-75
2021/03/31 08:13:41;;;;;;;52.13;34.90;;;12.00;99.90;;;;;;4161953;28;20042;-75
2021/03/31 08:15:42;;;;;;;48.20;31.70;;;12.00;99.90;;;;;;4163691;28;20037;-75
2021/03/31 08:17:43;;;;;;;46.97;32.55;;;12.30;99.90;;;;;;4142843;28;20115;-75
2021/03/31 08:19:47;;;;;;;47.50;31.98;;;12.40;99.90;;;;;;4129434;28;20050;-75
2021/03/31 08:21:49;;;;;;;45.13;32.22;;;12.60;99.90;;;;;;4129784;28;20043;-75
2021/03/31 08:23:52;;;;;;;45.40;33.63;;;12.70;99.90;;;;;;4129083;28;20409;-75
2021/03/31 08:25:52;;;;;;;48.22;32.65;;;12.90;99.90;;;;;;4129396;28;20030;-75
2021/03/31 08:27:59;;;;;;;43.97;31.15;;;13.10;99.90;;;;;;4129314;28;20038;-75
2021/03/31 08:30:01;;;;;;;45.60;31.80;;;13.20;99.90;;;;;;4128003;28;20066;-77
2021/03/31 08:32:05;;;;;;;59.30;34.55;;;13.40;99.90;;;;;;4128502;28;20034;-75
2021/03/31 08:34:08;;;;;;;39.97;30.55;;;13.50;99.90;;;;;;4128836;28;20023;-75
2021/03/31 08:36:09;;;;;;;44.92;31.88;;;13.70;99.90;;;;;;4128777;28;20402;-75
2021/03/31 08:38:14;;;;;;;52.17;33.22;;;13.80;99.90;;;;;;4126836;28;20114;-75
2021/03/31 08:40:16;;;;;;;51.15;31.65;;;13.90;99.90;;;;;;4130475;28;20030;-75
2021/03/31 08:42:18;;;;;;;44.55;31.65;;;14.10;99.90;;;;;;4129357;28;20027;-75
2021/03/31 08:44:36;;;;;;;48.22;32.70;;;14.30;99.90;;;;;;4129906;28;20109;-76
2021/03/31 08:46:37;;;;;;;46.58;33.40;;;14.40;99.90;;;;;;4129150;28;20034;-75
2021/03/31 08:48:41;;;;;;;49.53;31.27;;;14.50;99.90;;;;;;4125062;28;20046;-75
2021/03/31 08:50:44;;;;;;;42.95;31.73;;;14.80;99.90;;;;;;4127610;28;20133;-74
2021/03/31 08:52:44;;;;;;;41.50;30.95;;;14.90;99.90;;;;;;4128830;28;20390;-75
2021/03/31 08:54:53;;;;;;;52.42;32.83;;;15.00;99.90;;;;;;4128989;28;20040;-75
2021/03/31 08:57:28;;;;;;;43.25;30.65;;;15.10;99.90;;;;;;4125543;28;20133;-75
2021/03/31 08:59:31;;;;;;;44.35;31.48;;;15.20;99.90;;;;;;4117281;28;20379;-78
2021/03/31 09:01:32;;;;;;;43.20;31.77;;;15.40;99.90;;;;;;4129271;28;20038;-76
2021/03/31 09:03:32;;;;;;;39.42;30.90;;;15.50;99.90;;;;;;4129116;28;20536;-75
2021/03/31 09:05:33;;;;;;;46.92;33.17;;;15.70;99.90;;;;;;4129584;28;20178;-75
2021/03/31 09:07:34;;;;;;;46.17;33.17;;;15.80;99.90;;;;;;4130059;28;20038;-75
2021/03/31 09:09:40;;;;;;;42.63;31.52;;;16.00;99.90;;;;;;4128845;28;20043;-75
2021/03/31 09:11:41;;;;;;;45.92;31.73;;;16.20;99.90;;;;;;4128822;28;20038;-76
2021/03/31 09:13:42;;;;;;;43.30;32.63;;;16.40;99.90;;;;;;4128388;28;20505;-77
2021/03/31 09:15:53;;;;;;;45.95;34.00;;;16.70;99.90;;;;;;4127399;28;20058;-77
2021/03/31 09:17:55;;;;;;;46.05;34.00;;;16.90;99.90;;;;;;4130394;28;20041;-76
2021/03/31 09:19:59;;;;;;;43.13;33.53;;;17.10;99.90;;;;;;4161313;28;20026;-76
2021/03/31 09:22:28;;;;;;;44.33;32.58;;;17.30;99.90;;;;;;4145044;28;20026;-76
2021/03/31 09:24:29;;;;;;;50.42;34.40;;;17.60;99.90;;;;;;4141399;28;20033;-75
2021/03/31 09:26:30;;;;;;;45.83;33.63;;;18.00;99.90;;;;;;4162557;28;20124;-76
2021/03/31 09:28:32;;;;;;;40.40;33.42;;;18.10;99.90;;;;;;4161585;28;20488;-76
2021/03/31 09:30:33;;;;;;;40.37;32.73;;;18.30;99.90;;;;;;4161544;28;20091;-76
2021/03/31 09:32:40;;;;;;;44.35;33.03;;;18.60;99.90;;;;;;4159450;28;20334;-76
2021/03/31 09:34:42;;;;;;;41.30;33.75;;;18.80;99.90;;;;;;4151290;28;20378;-77
2021/03/31 09:36:55;;;;;;;39.58;32.55;;;19.00;99.90;;;;;;4139528;28;20034;-76
2021/03/31 09:38:56;;;;;;;49.63;34.53;;;19.20;99.90;;;;;;4159544;28;20745;-76
2021/03/31 09:41:03;;;;;;;38.17;32.67;;;19.30;99.90;;;;;;4141778;28;20112;-75
2021/03/31 09:43:04;;;;;;;41.08;33.25;;;19.40;99.90;;;;;;4163223;28;20038;-75
2021/03/31 09:45:11;;;;;;;40.67;31.77;;;19.60;99.90;;;;;;4139916;28;20053;-74
2021/03/31 09:47:13;;;;;;;43.50;32.75;;;20.00;99.90;;;;;;4160314;28;20119;-74
2021/03/31 09:49:14;;;;;;;44.22;31.58;;;20.20;99.90;;;;;;4142074;28;20484;-75
2021/03/31 09:51:15;;;;;;;42.90;30.80;;;20.60;99.90;;;;;;4143406;28;20038;-75
2021/03/31 09:53:16;;;;;;;41.20;32.42;;;20.80;99.90;;;;;;4138682;28;20396;-74
2021/03/31 09:55:17;;;;;;;41.92;33.28;;;21.20;99.90;;;;;;4161767;28;20044;-75
2021/03/31 09:57:18;;;;;;;41.25;32.33;;;21.40;99.90;;;;;;4161904;28;20115;-75
2021/03/31 09:59:19;;;;;;;43.33;33.47;;;21.70;99.90;;;;;;4142596;28;20026;-76
2021/03/31 10:01:20;;;;;;;44.60;31.67;;;21.80;99.90;;;;;;4160893;28;20516;-74
2021/03/31 10:03:24;;;;;;;39.97;32.35;;;22.10;99.90;;;;;;4142383;28;20033;-75
2021/03/31 10:05:27;;;;;;;43.28;34.97;;;22.50;99.90;;;;;;4158518;28;20026;-75
2021/03/31 10:07:29;;;;;;;44.83;33.63;;;22.70;99.90;;;;;;4148660;28;20430;-76
2021/03/31 10:09:42;;;;;;;39.72;32.85;;;22.80;99.90;;;;;;4161274;28;20037;-75
2021/03/31 10:11:43;;;;;;;40.10;31.55;;;23.10;99.90;;;;;;4159396;28;20041;-73
2021/03/31 10:13:44;;;;;;;47.63;34.00;;;23.40;99.90;;;;;;4139986;28;20026;-74
2021/03/31 10:16:05;;;;;;;42.95;33.28;;;;;;;;;;4140736;28;20053;-76
2021/03/31 10:18:06;;;;;;;40.72;33.10;;;23.90;98.70;;;;;;4160681;28;20045;-76
2021/03/31 10:20:13;;;;;;;43.15;32.78;;;24.20;96.80;;;;;;4159945;28;20033;-75
2021/03/31 10:22:15;;;;;;;44.33;33.78;;;24.60;98.60;;;;;;4160823;28;20029;-74
2021/03/31 10:24:38;;;;;;;43.23;32.20;;;24.90;90.40;;;;;;4161242;28;20120;-74
2021/03/31 10:26:47;;;;;;;45.42;33.45;;;25.20;87.70;;;;;;4160721;28;20048;-75
2021/03/31 10:28:50;;;;;;;43.13;34.95;;;25.20;88.80;;;;;;4159833;28;20033;-74
2021/03/31 10:30:50;;;;;;;45.53;34.72;;;25.40;91.50;;;;;;4161261;28;20029;-74
2021/03/31 10:32:52;;;;;;;46.15;34.25;;;24.70;87.30;;;;;;4160329;28;20619;-75
2021/03/31 10:34:54;;;;;;;44.10;34.65;;;25.30;86.10;;;;;;4160286;28;20029;-74
2021/03/31 10:41:46;;;;;;;57.05;38.85;;;26.30;91.20;;;;;;4161392;28;20102;-74
2021/03/31 10:53:11;;;;;;;44.13;34.47;;;26.80;77.60;;;;;;4151814;28;20802;-74
2021/03/31 10:55:12;;;;;;;45.38;37.45;;;27.10;75.80;;;;;;4142591;28;20033;-73